Time;durP1;ratioP1;P1;durP2;ratioP2;P2;SDS_P1;SDS_P2;PMS_P1;PMS_P2;Temp;Humidity;BMP_temperature;BMP_pressure;BME280_temperature;BME280_humidity;BME280_pressure;Samples;Min_cycle;Max_cycle;Signal;HPM_P1;HPM_P2
2023/01/03 00:00:01;;;;;;;9.13;5.53;;;2.50;99.90;;;;;;5046161;28;20459;-74
2023/01/03 00:02:28;;;;;;;11.23;7.70;;;2.50;99.90;;;;;;5046914;28;20464;-74
2023/01/03 00:04:55;;;;;;;11.17;8.10;;;2.50;99.90;;;;;;5038508;28;20489;-74
2023/01/03 00:07:33;;;;;;;10.00;6.60;;;2.40;99.90;;;;;;5047168;28;20488;-74
2023/01/03 00:10:00;;;;;;;13.27;7.83;;;2.50;99.90;;;;;;5043656;28;20461;-74
2023/01/03 00:12:30;;;;;;;14.53;6.10;;;2.50;99.90;;;;;;5039871;28;20488;-74
2023/01/03 00:14:58;;;;;;;8.83;6.30;;;2.50;99.90;;;;;;5051706;28;20774;-74
2023/01/03 00:17:25;;;;;;;11.90;7.50;;;2.50;99.90;;;;;;5041787;28;21027;-74
2023/01/03 00:19:52;;;;;;;9.27;6.23;;;2.50;99.90;;;;;;5043858;28;20502;-74
2023/01/03 00:22:19;;;;;;;10.77;7.53;;;2.50;99.90;;;;;;5044532;28;20485;-74
2023/01/03 00:24:48;;;;;;;10.47;6.43;;;2.40;99.90;;;;;;5046493;28;20456;-73
2023/01/03 00:27:16;;;;;;;15.93;8.17;;;2.40;99.90;;;;;;5043591;28;21385;-74
2023/01/03 00:29:45;;;;;;;14.07;7.90;;;2.50;99.90;;;;;;5054731;28;20522;-74
2023/01/03 00:32:12;;;;;;;22.70;8.20;;;2.50;99.90;;;;;;5038892;28;20497;-74
2023/01/03 00:34:39;;;;;;;41.40;10.13;;;2.50;99.90;;;;;;5043858;28;20459;-73
2023/01/03 00:37:06;;;;;;;13.60;8.13;;;2.50;99.90;;;;;;5046719;28;20464;-73
2023/01/03 00:39:33;;;;;;;13.07;6.63;;;2.50;99.90;;;;;;5039122;28;20925;-74
2023/01/03 00:42:00;;;;;;;10.27;6.70;;;2.50;99.90;;;;;;5046007;28;20887;-73
2023/01/03 00:44:27;;;;;;;10.13;6.07;;;2.50;99.90;;;;;;5036668;28;20775;-74
2023/01/03 00:46:56;;;;;;;8.53;6.03;;;2.60;99.90;;;;;;5033023;28;20572;-74
2023/01/03 00:49:23;;;;;;;8.30;6.53;;;2.60;99.90;;;;;;5033659;28;20988;-74
2023/01/03 00:51:52;;;;;;;6.10;5.60;;;2.40;99.90;;;;;;5044836;28;20519;-74
2023/01/03 00:54:20;;;;;;;6.30;5.70;;;2.50;99.90;;;;;;5036825;28;20518;-74
2023/01/03 00:56:48;;;;;;;6.17;5.20;;;2.40;99.90;;;;;;5046536;28;20859;-74
2023/01/03 00:59:17;;;;;;;5.90;5.33;;;2.60;99.90;;;;;;5049769;28;20460;-74
2023/01/03 01:01:46;;;;;;;7.00;6.30;;;2.60;99.90;;;;;;5034149;28;20942;-74
2023/01/03 01:04:19;;;;;;;7.40;6.70;;;2.60;99.90;;;;;;5044172;28;20863;-74
2023/01/03 01:06:49;;;;;;;9.37;6.00;;;2.50;99.90;;;;;;5042647;28;20230;-74
2023/01/03 01:09:17;;;;;;;5.50;4.50;;;2.60;99.90;;;;;;5038119;28;20449;-74
2023/01/03 01:11:45;;;;;;;6.67;6.07;;;2.70;99.90;;;;;;5042650;28;20843;-74
2023/01/03 01:14:21;;;;;;;5.77;5.27;;;2.80;99.90;;;;;;5042602;28;21144;-73
2023/01/03 01:16:49;;;;;;;5.85;4.03;;;2.80;99.90;;;;;;5037329;28;20492;-73
2023/01/03 01:19:18;;;;;;;7.93;5.13;;;2.70;99.90;;;;;;5041512;28;20607;-73
2023/01/03 01:21:46;;;;;;;6.20;5.13;;;2.70;99.90;;;;;;5040217;28;20472;-73
2023/01/03 01:24:13;;;;;;;6.33;4.90;;;2.70;99.90;;;;;;5040828;28;20536;-73
2023/01/03 01:26:40;;;;;;;5.20;4.70;;;2.80;99.90;;;;;;5036041;28;20484;-73
2023/01/03 01:29:07;;;;;;;4.80;4.00;;;2.90;99.90;;;;;;5043712;28;20468;-73
2023/01/03 01:31:34;;;;;;;6.40;5.33;;;2.80;99.90;;;;;;5053902;28;20459;-73
2023/01/03 01:34:01;;;;;;;7.07;5.40;;;2.70;99.90;;;;;;5045393;28;20553;-73
2023/01/03 01:36:31;;;;;;;4.93;4.50;;;2.80;99.90;;;;;;5041885;28;20461;-73
2023/01/03 01:39:00;;;;;;;5.70;5.20;;;2.90;99.90;;;;;;5041144;28;20488;-73
2023/01/03 01:44:50;;;;;;;9.20;5.90;;;3.00;99.90;;;;;;5043729;28;20957;-73
2023/01/03 01:47:25;;;;;;;5.80;4.82;;;3.00;99.90;;;;;;5036066;28;20484;-73
2023/01/03 01:50:05;;;;;;;5.50;5.00;;;3.00;99.90;;;;;;5037861;28;20259;-73
2023/01/03 01:52:36;;;;;;;6.13;5.53;;;3.10;99.90;;;;;;5037073;28;20471;-73
2023/01/03 01:55:06;;;;;;;6.27;5.37;;;3.10;99.90;;;;;;5044480;28;20855;-73
2023/01/03 01:57:35;;;;;;;8.07;5.33;;;3.00;99.90;;;;;;5046554;28;20991;-73
2023/01/03 02:00:02;;;;;;;6.72;6.18;;;3.00;99.90;;;;;;5037064;28;20441;-73
2023/01/03 02:02:29;;;;;;;6.67;5.97;;;3.00;99.90;;;;;;5043656;28;20199;-73
2023/01/03 02:04:57;;;;;;;6.07;5.57;;;3.10;99.90;;;;;;5031063;28;20544;-73
2023/01/03 02:07:24;;;;;;;5.03;4.67;;;3.10;99.90;;;;;;5042852;28;20559;-73
2023/01/03 02:09:55;;;;;;;4.70;4.30;;;3.10;99.90;;;;;;5043563;28;20474;-73
2023/01/03 02:15:32;;;;;;;6.13;4.80;;;3.00;99.90;;;;;;5029150;28;20781;-73
2023/01/03 02:18:11;;;;;;;8.23;5.13;;;3.00;99.90;;;;;;5041925;28;20479;-73
2023/01/03 02:21:06;;;;;;;7.07;6.03;;;3.00;99.90;;;;;;5048665;28;20743;-73
2023/01/03 02:24:18;;;;;;;6.20;5.60;;;3.10;99.90;;;;;;5049925;28;20561;-73
2023/01/03 02:26:55;;;;;;;6.00;5.07;;;3.00;99.90;;;;;;5042141;28;20574;-73
2023/01/03 02:29:54;;;;;;;7.73;5.60;;;2.90;99.90;;;;;;5046468;28;20972;-73
2023/01/03 02:32:32;;;;;;;7.53;5.57;;;3.00;99.90;;;;;;5049283;28;21252;-73
2023/01/03 02:35:06;;;;;;;7.93;5.83;;;3.10;99.90;;;;;;5045616;28;20460;-73
2023/01/03 02:37:38;;;;;;;7.83;6.77;;;3.10;99.90;;;;;;5050887;28;20469;-73
2023/01/03 02:40:10;;;;;;;6.47;5.83;;;3.20;99.90;;;;;;5047824;28;20468;-73
2023/01/03 02:43:00;;;;;;;10.13;7.30;;;3.30;99.90;;;;;;5048726;28;20511;-73
2023/01/03 02:45:52;;;;;;;8.40;6.40;;;3.20;99.90;;;;;;5044792;28;20457;-73
2023/01/03 02:48:30;;;;;;;8.40;6.90;;;3.20;99.90;;;;;;5053084;28;20518;-73
2023/01/03 02:51:01;;;;;;;7.03;6.30;;;3.10;99.90;;;;;;5044186;28;20461;-73
2023/01/03 02:53:35;;;;;;;7.80;6.43;;;3.20;99.90;;;;;;5050194;28;20993;-73
2023/01/03 02:56:07;;;;;;;6.47;5.87;;;3.20;99.90;;;;;;5045261;28;20553;-73
2023/01/03 02:58:37;;;;;;;5.23;4.73;;;3.20;99.90;;;;;;5054509;28;20461;-73
2023/01/03 03:01:07;;;;;;;7.80;6.37;;;3.30;99.90;;;;;;5037008;28;20566;-73
2023/01/03 03:03:37;;;;;;;6.87;6.17;;;3.40;99.90;;;;;;5046394;28;20921;-74
2023/01/03 03:06:11;;;;;;;8.07;6.37;;;3.30;99.90;;;;;;5044427;28;20862;-74
2023/01/03 03:08:38;;;;;;;7.33;6.10;;;3.30;99.90;;;;;;5046206;28;20936;-74
2023/01/03 03:13:55;;;;;;;8.80;5.65;;;3.30;99.90;;;;;;5054961;28;20545;-74
2023/01/03 03:24:49;;;;;;;6.30;5.80;;;3.60;99.90;;;;;;5045499;28;20434;-74
2023/01/03 03:30:03;;;;;;;6.77;6.10;;;3.60;99.90;;;;;;5040419;28;20448;-74
2023/01/03 03:32:33;;;;;;;8.30;5.10;;;3.60;99.90;;;;;;5041674;28;20495;-74
2023/01/03 03:35:04;;;;;;;5.50;5.00;;;3.60;99.90;;;;;;5042313;28;20461;-74
2023/01/03 03:37:35;;;;;;;7.10;5.50;;;3.70;99.90;;;;;;5044504;28;20999;-74
2023/01/03 03:45:45;;;;;;;4.70;4.30;;;3.70;99.90;;;;;;5047469;28;20492;-74
2023/01/03 03:48:16;;;;;;;8.60;6.00;;;3.70;99.90;;;;;;5045730;28;20510;-74
2023/01/03 03:50:51;;;;;;;8.47;7.67;;;3.80;99.90;;;;;;5044330;28;20932;-74
2023/01/03 03:53:22;;;;;;;7.57;5.70;;;3.70;99.90;;;;;;5039679;28;20472;-74
2023/01/03 03:55:53;;;;;;;6.70;5.43;;;3.70;99.90;;;;;;5040312;28;20464;-74
2023/01/03 03:58:24;;;;;;;7.07;6.33;;;3.70;99.90;;;;;;5041727;28;20491;-74
2023/01/03 04:00:53;;;;;;;8.20;5.83;;;3.60;99.90;;;;;;5038038;28;20895;-74
2023/01/03 04:03:21;;;;;;;5.20;4.70;;;3.60;99.90;;;;;;5036162;28;20500;-74
2023/01/03 04:05:54;;;;;;;4.63;4.23;;;3.70;99.90;;;;;;5038599;28;20453;-74
2023/01/03 04:08:21;;;;;;;7.70;6.27;;;3.80;99.90;;;;;;5045159;28;20550;-74
2023/01/03 04:10:48;;;;;;;5.10;4.50;;;3.80;99.90;;;;;;5040694;28;20522;-73
2023/01/03 04:13:15;;;;;;;5.53;5.03;;;3.80;99.90;;;;;;5047613;28;20526;-74
2023/01/03 04:15:42;;;;;;;7.50;6.83;;;3.80;99.90;;;;;;5049535;28;20853;-74
2023/01/03 04:18:09;;;;;;;5.30;4.80;;;3.80;99.90;;;;;;5047663;28;20498;-73
2023/01/03 04:20:36;;;;;;;5.07;4.20;;;3.70;99.90;;;;;;5044707;28;20206;-74
2023/01/03 04:23:04;;;;;;;4.40;3.93;;;3.60;99.90;;;;;;5039711;28;20976;-74
2023/01/03 04:25:31;;;;;;;5.27;4.80;;;3.70;99.90;;;;;;5045610;28;21219;-74
2023/01/03 04:27:58;;;;;;;5.50;5.00;;;3.70;99.90;;;;;;5042264;28;20573;-74
2023/01/03 04:30:25;;;;;;;4.97;4.17;;;3.60;99.90;;;;;;5045511;28;20489;-74
2023/01/03 04:32:52;;;;;;;5.33;4.80;;;3.70;99.90;;;;;;5043318;28;20816;-74
2023/01/03 04:35:18;;;;;;;6.10;5.30;;;3.70;99.90;;;;;;5042899;28;20515;-74
2023/01/03 04:37:46;;;;;;;4.73;4.30;;;3.60;99.90;;;;;;5045913;28;20515;-74
2023/01/03 04:40:14;;;;;;;6.35;5.75;;;3.40;99.90;;;;;;5056327;28;20474;-74
2023/01/03 04:45:25;;;;;;;4.97;4.47;;;3.60;99.90;;;;;;5041645;28;20780;-74
2023/01/03 04:47:53;;;;;;;5.23;4.77;;;3.60;99.90;;;;;;5043374;28;20516;-74
2023/01/03 04:50:20;;;;;;;5.80;5.00;;;3.70;99.90;;;;;;5044206;28;20558;-74
2023/01/03 04:52:47;;;;;;;5.23;4.70;;;3.80;99.90;;;;;;5043028;28;20461;-74
2023/01/03 04:55:16;;;;;;;5.50;4.67;;;3.60;99.90;;;;;;5043032;28;20516;-74
2023/01/03 04:57:43;;;;;;;6.23;5.70;;;3.50;99.90;;;;;;5049359;28;20522;-73
2023/01/03 05:00:11;;;;;;;5.30;4.90;;;3.50;99.90;;;;;;5041565;28;20535;-73
2023/01/03 05:02:38;;;;;;;6.37;5.53;;;3.50;99.90;;;;;;5040016;28;20465;-73
2023/01/03 05:05:06;;;;;;;6.00;5.50;;;3.60;99.90;;;;;;5049360;28;20491;-73
2023/01/03 05:07:33;;;;;;;6.60;5.03;;;3.60;99.90;;;;;;5037224;28;21133;-73
2023/01/03 05:10:00;;;;;;;5.63;5.07;;;3.50;99.90;;;;;;5051007;28;20815;-74
2023/01/03 05:12:28;;;;;;;6.53;5.83;;;3.50;99.90;;;;;;5046466;28;20464;-74
2023/01/03 05:14:55;;;;;;;5.60;5.10;;;3.50;99.90;;;;;;5038545;28;20561;-74
2023/01/03 05:17:22;;;;;;;5.90;5.30;;;3.60;99.90;;;;;;5046474;28;20464;-73
2023/01/03 05:28:05;;;;;;;5.87;5.37;;;3.60;99.90;;;;;;5045747;28;20511;-75
2023/01/03 05:30:32;;;;;;;8.30;5.10;;;3.60;99.90;;;;;;5044840;28;20460;-74
2023/01/03 05:32:59;;;;;;;5.17;4.77;;;3.70;99.90;;;;;;5045525;28;20853;-74
2023/01/03 05:35:26;;;;;;;6.47;5.23;;;3.60;99.90;;;;;;5044942;28;20460;-74
2023/01/03 05:37:53;;;;;;;6.53;5.90;;;3.70;99.90;;;;;;5044896;28;20536;-74
2023/01/03 05:40:20;;;;;;;6.93;6.23;;;3.80;99.90;;;;;;5048003;28;20452;-74
2023/01/03 05:42:47;;;;;;;6.00;5.50;;;3.80;99.90;;;;;;5046930;28;20550;-74
2023/01/03 05:45:16;;;;;;;6.80;6.17;;;3.70;99.90;;;;;;5045395;28;20937;-74
2023/01/03 05:47:43;;;;;;;7.27;5.53;;;3.70;99.90;;;;;;5048195;28;20503;-74
2023/01/03 05:50:10;;;;;;;6.07;5.47;;;3.60;99.90;;;;;;5042605;28;20461;-74
2023/01/03 05:52:37;;;;;;;6.80;6.07;;;3.70;99.90;;;;;;5044539;28;20477;-74
2023/01/03 05:55:04;;;;;;;6.53;5.10;;;3.70;99.90;;;;;;5045565;28;20465;-74
2023/01/03 05:57:31;;;;;;;6.87;6.07;;;3.80;99.90;;;;;;5045759;28;20897;-76
2023/01/03 05:59:58;;;;;;;5.87;5.30;;;3.70;99.90;;;;;;5045982;28;20449;-76
2023/01/03 06:02:27;;;;;;;8.90;6.97;;;3.80;99.90;;;;;;5046203;28;20465;-76
2023/01/03 06:04:54;;;;;;;6.17;5.53;;;3.70;99.90;;;;;;5046255;28;20521;-76
2023/01/03 06:07:21;;;;;;;9.57;7.10;;;3.70;99.90;;;;;;5046353;28;20511;-74
2023/01/03 06:09:48;;;;;;;6.07;5.30;;;3.60;99.90;;;;;;5045364;28;21068;-74
2023/01/03 06:12:15;;;;;;;6.45;5.10;;;3.50;99.90;;;;;;5045121;28;20522;-74
2023/01/03 06:14:42;;;;;;;5.90;5.40;;;3.60;99.90;;;;;;5044813;28;20272;-73
2023/01/03 06:19:54;;;;;;;7.93;5.80;;;3.60;99.90;;;;;;5049543;28;20768;-74
2023/01/03 06:22:21;;;;;;;6.80;5.90;;;3.50;99.90;;;;;;5047111;28;20991;-73
2023/01/03 06:24:48;;;;;;;6.40;5.77;;;3.50;99.90;;;;;;5046834;28;20557;-74
2023/01/03 06:27:15;;;;;;;8.77;7.20;;;3.50;99.90;;;;;;5045002;28;20520;-74
2023/01/03 06:29:42;;;;;;;9.30;5.33;;;3.40;99.90;;;;;;5047465;28;20465;-74
2023/01/03 06:32:09;;;;;;;8.90;5.73;;;3.40;99.90;;;;;;5041199;28;20469;-73
2023/01/03 06:34:36;;;;;;;6.60;5.97;;;3.50;99.90;;;;;;5057301;28;20460;-74
2023/01/03 06:37:04;;;;;;;6.67;6.07;;;3.70;99.90;;;;;;5049886;28;20460;-74
2023/01/03 06:39:32;;;;;;;6.28;5.63;;;3.80;99.90;;;;;;5038610;28;20468;-73
2023/01/03 06:42:38;;;;;;;5.53;5.03;;;3.90;99.90;;;;;;5043350;28;20238;-74
2023/01/03 06:53:10;;;;;;;5.70;5.20;;;4.10;99.90;;;;;;5046351;28;20889;-74
2023/01/03 06:53:14;;;;;;;6.30;5.00;;;4.30;99.90;;;;;;5045086;28;20509;-74
2023/01/03 06:55:41;;;;;;;9.53;6.27;;;4.50;99.90;;;;;;5046442;28;20514;-74
2023/01/03 06:58:08;;;;;;;14.17;6.60;;;4.60;99.90;;;;;;5054015;28;20491;-74
2023/01/03 07:00:37;;;;;;;6.40;5.67;;;4.60;99.90;;;;;;5046769;28;20518;-74
2023/01/03 07:03:04;;;;;;;8.10;5.00;;;4.70;99.90;;;;;;5044646;28;20457;-76
2023/01/03 07:05:31;;;;;;;6.50;5.90;;;4.70;99.90;;;;;;5047484;28;20496;-76
2023/01/03 07:07:58;;;;;;;7.03;6.27;;;4.70;99.90;;;;;;5040908;28;20576;-76
2023/01/03 07:10:27;;;;;;;7.93;6.80;;;4.50;99.90;;;;;;5044756;28;20874;-74
2023/01/03 07:15:43;;;;;;;12.10;7.97;;;4.00;99.90;;;;;;5034596;28;20484;-74
2023/01/03 07:18:10;;;;;;;7.73;6.63;;;3.80;99.90;;;;;;5026888;28;20529;-74
2023/01/03 07:20:41;;;;;;;8.07;6.63;;;3.70;99.90;;;;;;5022579;28;20480;-74
2023/01/03 07:23:08;;;;;;;7.97;6.60;;;3.50;99.90;;;;;;5025766;28;20465;-74
2023/01/03 07:25:39;;;;;;;6.87;6.10;;;3.30;99.90;;;;;;5026632;28;21015;-74
2023/01/03 07:28:07;;;;;;;7.93;7.23;;;3.30;99.90;;;;;;5028218;28;20518;-74
2023/01/03 07:30:38;;;;;;;15.63;13.23;;;3.30;99.90;;;;;;5033191;28;20884;-74
2023/01/03 07:33:05;;;;;;;12.60;9.97;;;3.40;99.90;;;;;;5022498;28;20506;-74
2023/01/03 07:35:32;;;;;;;8.80;7.80;;;3.50;99.90;;;;;;5021691;28;20462;-74
2023/01/03 07:37:59;;;;;;;6.83;6.23;;;3.50;99.90;;;;;;5020958;28;20454;-74
2023/01/03 07:40:26;;;;;;;5.97;5.40;;;3.60;99.90;;;;;;5021696;28;20550;-74
2023/01/03 07:45:41;;;;;;;6.30;5.70;;;3.70;99.90;;;;;;5020157;28;20214;-74
2023/01/03 07:48:08;;;;;;;18.77;7.60;;;3.80;99.90;;;;;;5021266;28;20493;-74
2023/01/03 07:50:35;;;;;;;7.83;7.03;;;3.80;99.90;;;;;;5022975;28;20570;-74
2023/01/03 07:53:02;;;;;;;7.13;6.43;;;3.90;99.90;;;;;;5023845;28;20800;-74
2023/01/03 07:55:29;;;;;;;13.00;8.50;;;4.00;99.90;;;;;;5017105;28;20462;-74
2023/01/03 07:57:57;;;;;;;13.33;9.13;;;4.00;99.90;;;;;;5022203;28;20496;-76
2023/01/03 08:00:24;;;;;;;40.70;27.20;;;4.10;99.90;;;;;;5022481;28;20852;-76
2023/01/03 08:02:53;;;;;;;28.83;14.80;;;4.20;99.90;;;;;;5023050;28;20450;-76
2023/01/03 08:05:20;;;;;;;35.97;18.87;;;4.30;99.90;;;;;;5022424;28;20459;-76
2023/01/03 08:07:47;;;;;;;24.03;16.37;;;4.40;99.90;;;;;;5021269;28;20572;-76
2023/01/03 08:13:19;;;;;;;12.17;10.20;;;4.80;99.90;;;;;;5009666;28;20236;-75
2023/01/03 08:15:49;;;;;;;9.20;8.30;;;4.90;99.90;;;;;;5020330;28;20453;-76
2023/01/03 08:18:17;;;;;;;14.67;10.30;;;5.00;99.90;;;;;;5016486;28;20457;-76
2023/01/03 08:20:43;;;;;;;9.83;7.27;;;5.00;99.90;;;;;;5008873;28;20732;-75
2023/01/03 08:23:11;;;;;;;12.27;9.90;;;4.80;99.90;;;;;;5016595;28;20466;-76
2023/01/03 08:25:38;;;;;;;9.73;8.73;;;4.80;99.90;;;;;;5026407;28;20448;-76
2023/01/03 08:28:08;;;;;;;10.03;8.70;;;4.80;99.90;;;;;;5027182;28;20485;-75
2023/01/03 08:30:40;;;;;;;12.20;8.85;;;4.70;99.90;;;;;;5035187;28;20448;-75
2023/01/03 08:33:10;;;;;;;7.13;6.43;;;4.80;99.90;;;;;;5020046;28;20253;-76
2023/01/03 08:35:39;;;;;;;8.87;7.57;;;4.80;99.90;;;;;;5025154;28;20521;-76
2023/01/03 08:38:11;;;;;;;11.43;9.43;;;4.90;99.90;;;;;;5023709;28;20508;-76
2023/01/03 08:40:41;;;;;;;14.27;8.13;;;5.00;99.90;;;;;;5023106;28;20522;-76
2023/01/03 08:43:10;;;;;;;7.90;7.10;;;5.00;99.90;;;;;;5007400;28;20578;-76
2023/01/03 08:45:38;;;;;;;11.40;8.50;;;5.20;99.90;;;;;;5022297;28;20894;-76
2023/01/03 08:48:07;;;;;;;8.47;7.63;;;5.80;99.90;;;;;;5021268;28;20821;-76
2023/01/03 08:50:34;;;;;;;8.13;7.43;;;6.10;99.90;;;;;;5021894;28;20650;-76
2023/01/03 08:53:03;;;;;;;6.93;6.33;;;6.50;99.90;;;;;;5021073;28;20517;-76
2023/01/03 08:55:30;;;;;;;10.30;7.13;;;6.50;99.90;;;;;;5021651;28;20465;-76
2023/01/03 08:57:59;;;;;;;6.17;5.47;;;6.40;99.90;;;;;;5026279;28;20461;-76
2023/01/03 09:00:29;;;;;;;6.47;5.93;;;6.30;99.90;;;;;;5021327;28;20492;-76
2023/01/03 09:02:59;;;;;;;6.55;5.95;;;6.30;99.90;;;;;;5021526;28;20519;-76
2023/01/03 09:05:26;;;;;;;5.20;4.80;;;6.30;99.90;;;;;;5025999;28;20211;-76
2023/01/03 09:07:54;;;;;;;6.60;4.68;;;6.40;99.90;;;;;;5027898;28;20477;-76
2023/01/03 09:10:21;;;;;;;4.17;3.80;;;6.40;99.90;;;;;;5019200;28;20407;-76
2023/01/03 09:12:48;;;;;;;5.77;5.27;;;6.50;99.90;;;;;;5023937;28;20845;-76
2023/01/03 09:15:15;;;;;;;5.37;4.87;;;6.70;99.90;;;;;;5025831;28;20461;-76
2023/01/03 09:17:46;;;;;;;5.33;4.73;;;6.80;99.90;;;;;;5034428;28;20952;-74
2023/01/03 09:20:13;;;;;;;9.00;5.77;;;6.90;99.90;;;;;;5025767;28;20477;-76
2023/01/03 09:22:41;;;;;;;5.03;4.53;;;7.00;99.90;;;;;;5029182;28;20450;-76
2023/01/03 09:25:08;;;;;;;5.93;5.33;;;7.00;99.90;;;;;;5024875;28;20616;-76
2023/01/03 09:27:36;;;;;;;6.27;5.43;;;7.10;99.90;;;;;;5025569;28;20521;-76
2023/01/03 09:30:03;;;;;;;7.80;5.03;;;7.20;99.90;;;;;;5021936;28;20914;-76
2023/01/03 09:32:30;;;;;;;6.07;5.40;;;7.30;99.90;;;;;;5032057;28;20450;-76
2023/01/03 09:34:59;;;;;;;7.13;6.43;;;7.30;99.90;;;;;;5026185;28;20445;-76
2023/01/03 09:37:26;;;;;;;5.50;5.00;;;7.30;99.90;;;;;;5016819;28;20455;-76
2023/01/03 09:39:53;;;;;;;7.60;4.43;;;7.40;99.90;;;;;;5033532;28;20540;-76
2023/01/03 09:45:13;;;;;;;10.80;6.57;;;7.40;99.90;;;;;;5025914;28;20449;-76
2023/01/03 09:47:42;;;;;;;5.40;4.83;;;7.50;99.90;;;;;;5018780;28;20615;-76
2023/01/03 09:50:19;;;;;;;5.40;4.93;;;7.60;99.90;;;;;;5009261;28;20537;-76
2023/01/03 10:04:42;;;;;;;6.80;5.50;;;7.60;99.90;;;;;;5025383;28;20452;-75
2023/01/03 10:07:22;;;;;;;4.97;4.50;;;7.60;99.90;;;;;;5023569;28;20462;-75
2023/01/03 10:09:55;;;;;;;6.30;5.47;;;7.70;99.90;;;;;;5023395;28;20825;-75
2023/01/03 10:12:29;;;;;;;4.10;3.70;;;7.70;99.90;;;;;;5016683;28;20547;-75
2023/01/03 10:15:10;;;;;;;6.77;5.00;;;7.80;99.90;;;;;;5026282;28;20466;-75
2023/01/03 10:17:47;;;;;;;4.70;4.30;;;7.70;99.90;;;;;;5025404;28;20478;-75
2023/01/03 10:20:33;;;;;;;6.00;5.50;;;7.80;99.90;;;;;;5026766;28;20492;-75
2023/01/03 10:23:05;;;;;;;6.75;4.60;;;7.70;99.90;;;;;;5029165;28;20552;-75
2023/01/03 10:25:32;;;;;;;5.37;4.10;;;7.80;99.90;;;;;;5018983;28;20292;-75
2023/01/03 10:28:06;;;;;;;4.87;4.40;;;7.80;99.90;;;;;;5024407;28;20518;-75
2023/01/03 10:30:47;;;;;;;6.07;5.20;;;7.80;99.90;;;;;;5026423;28;20442;-75
2023/01/03 10:33:31;;;;;;;6.60;6.00;;;7.80;99.90;;;;;;5016446;28;20547;-75
2023/01/03 10:35:58;;;;;;;6.33;5.83;;;7.80;99.90;;;;;;5015451;28;20949;-75
2023/01/03 10:38:27;;;;;;;5.20;4.70;;;7.80;99.90;;;;;;5021497;28;20554;-75
2023/01/03 10:40:57;;;;;;;5.87;5.30;;;7.80;99.90;;;;;;5008952;28;20454;-75
2023/01/03 10:43:31;;;;;;;6.63;4.57;;;7.80;99.90;;;;;;5023292;28;20500;-75
2023/01/03 10:46:00;;;;;;;6.00;4.10;;;7.90;99.90;;;;;;5021605;28;20465;-75
2023/01/03 10:48:35;;;;;;;9.20;5.33;;;7.90;99.90;;;;;;5025983;28;20811;-75
2023/01/03 10:51:05;;;;;;;5.10;4.30;;;7.90;99.90;;;;;;5021837;28;20500;-75
2023/01/03 10:53:40;;;;;;;4.53;3.30;;;8.00;99.90;;;;;;5021945;28;20588;-75
2023/01/03 10:56:08;;;;;;;6.33;5.50;;;8.00;99.90;;;;;;5008857;28;20461;-75
2023/01/03 10:58:34;;;;;;;4.43;4.03;;;8.00;99.90;;;;;;5008679;28;20451;-75
2023/01/03 11:01:20;;;;;;;5.10;4.70;;;8.00;99.90;;;;;;5012263;28;20528;-75
2023/01/03 11:04:08;;;;;;;9.93;7.00;;;8.10;99.90;;;;;;5012607;28;20488;-75
2023/01/03 11:06:35;;;;;;;9.03;6.27;;;8.20;99.90;;;;;;5018590;28;20484;-75
2023/01/03 11:09:10;;;;;;;9.60;7.50;;;8.30;99.90;;;;;;5014483;28;20552;-75
2023/01/03 11:11:41;;;;;;;10.03;6.90;;;8.20;99.90;;;;;;5028560;28;20465;-75
2023/01/03 11:14:23;;;;;;;8.43;7.57;;;8.10;99.90;;;;;;5024702;28;20489;-75
2023/01/03 11:16:59;;;;;;;11.60;7.23;;;8.00;99.90;;;;;;5023096;28;21291;-75
2023/01/03 11:19:28;;;;;;;7.83;6.23;;;8.00;99.90;;;;;;5031739;28;20967;-75
2023/01/03 11:22:04;;;;;;;12.13;7.03;;;7.90;99.90;;;;;;5024552;28;20776;-75
2023/01/03 11:24:49;;;;;;;7.83;7.03;;;8.00;99.90;;;;;;5036420;28;20458;-75
2023/01/03 11:27:27;;;;;;;6.13;5.50;;;8.00;99.90;;;;;;5021815;28;20457;-75
2023/01/03 11:30:14;;;;;;;4.77;4.10;;;8.00;99.90;;;;;;5018567;28;20553;-75
2023/01/03 11:33:00;;;;;;;5.47;4.63;;;8.20;99.90;;;;;;5015179;28;20465;-75
2023/01/03 11:35:39;;;;;;;10.50;9.40;;;8.30;99.90;;;;;;5013658;28;20829;-75
2023/01/03 11:38:22;;;;;;;14.17;10.20;;;8.30;99.90;;;;;;5017319;28;20942;-76
2023/01/03 11:41:00;;;;;;;5.20;4.70;;;8.30;99.90;;;;;;5015827;28;20472;-75
2023/01/03 11:43:40;;;;;;;6.50;5.90;;;8.30;99.90;;;;;;5015650;28;20771;-75
2023/01/03 11:46:34;;;;;;;7.03;4.37;;;8.40;99.90;;;;;;5019837;28;20485;-75
2023/01/03 11:49:22;;;;;;;7.37;4.63;;;8.40;99.90;;;;;;5016223;28;20551;-75
2023/01/03 11:52:05;;;;;;;5.87;2.90;;;8.20;99.90;;;;;;5034103;28;20504;-75
2023/01/03 11:54:48;;;;;;;5.67;4.40;;;8.20;99.90;;;;;;5014298;28;21034;-76
2023/01/03 11:57:26;;;;;;;5.80;4.83;;;8.20;99.90;;;;;;5015153;28;20466;-77
2023/01/03 12:00:07;;;;;;;6.70;5.87;;;8.30;99.90;;;;;;5018798;28;22738;-77
2023/01/03 12:03:03;;;;;;;7.57;6.90;;;8.20;99.90;;;;;;5012812;28;20466;-76
2023/01/03 12:05:47;;;;;;;8.60;6.70;;;8.20;99.90;;;;;;5011071;28;21216;-77
2023/01/03 12:08:37;;;;;;;4.90;4.60;;;8.20;99.90;;;;;;5015884;28;20502;-76
2023/01/03 12:11:16;;;;;;;7.20;6.50;;;8.20;99.90;;;;;;5014834;28;20556;-76
2023/01/03 12:13:52;;;;;;;10.10;6.90;;;8.20;99.90;;;;;;5009684;28;21418;-74
2023/01/03 12:16:24;;;;;;;5.70;5.20;;;8.20;99.90;;;;;;5019361;28;20527;-74
2023/01/03 12:18:57;;;;;;;6.63;6.03;;;8.20;99.90;;;;;;5019356;28;20461;-74
2023/01/03 12:21:34;;;;;;;7.93;7.13;;;8.20;99.90;;;;;;5012319;28;20572;-74
2023/01/03 12:24:06;;;;;;;5.33;4.90;;;8.30;99.90;;;;;;5024316;28;20511;-74
2023/01/03 12:26:36;;;;;;;8.43;5.20;;;8.20;99.90;;;;;;5012957;28;20497;-74
2023/01/03 12:29:15;;;;;;;7.72;5.45;;;8.20;99.90;;;;;;5020643;28;20579;-74
2023/01/03 12:31:46;;;;;;;6.88;4.40;;;8.20;99.90;;;;;;5009577;28;20728;-77
2023/01/03 12:34:24;;;;;;;6.30;5.23;;;8.20;99.90;;;;;;5015557;28;20231;-77
2023/01/03 12:37:04;;;;;;;5.77;4.07;;;8.20;99.90;;;;;;5020372;28;20457;-74
2023/01/03 12:39:39;;;;;;;11.70;5.30;;;8.20;99.90;;;;;;5019111;28;20516;-74
2023/01/03 12:42:17;;;;;;;5.70;4.93;;;8.10;99.90;;;;;;5010680;28;20544;-74
2023/01/03 12:44:48;;;;;;;5.07;4.60;;;8.00;99.90;;;;;;5015937;28;20563;-74
2023/01/03 12:47:25;;;;;;;4.93;4.47;;;8.00;99.90;;;;;;5020854;28;20812;-74
2023/01/03 12:49:58;;;;;;;8.83;6.00;;;8.00;99.90;;;;;;5022636;28;20483;-74
2023/01/03 12:52:26;;;;;;;5.47;4.53;;;8.10;99.90;;;;;;5015089;28;20477;-74
2023/01/03 12:54:59;;;;;;;5.17;4.67;;;8.00;99.90;;;;;;5015169;28;20494;-74
2023/01/03 12:57:48;;;;;;;6.80;6.20;;;8.10;99.90;;;;;;5012579;28;20493;-74
2023/01/03 13:00:30;;;;;;;6.00;5.27;;;8.20;99.90;;;;;;5007541;28;20476;-74
2023/01/03 13:03:01;;;;;;;5.00;4.50;;;8.20;99.90;;;;;;5012023;28;20498;-74
2023/01/03 13:05:36;;;;;;;4.30;3.90;;;8.20;99.90;;;;;;5006348;28;20470;-74
2023/01/03 13:08:09;;;;;;;7.00;4.50;;;8.20;99.90;;;;;;5021794;28;20527;-74
2023/01/03 13:10:41;;;;;;;7.20;5.47;;;8.30;99.90;;;;;;5027817;28;20483;-74
2023/01/03 13:13:15;;;;;;;6.60;5.90;;;8.30;99.90;;;;;;5010015;28;20470;-74
2023/01/03 13:15:45;;;;;;;5.33;4.23;;;8.20;99.90;;;;;;5009083;28;20496;-74
2023/01/03 13:18:30;;;;;;;5.83;5.13;;;8.20;99.90;;;;;;5007855;28;20461;-76
2023/01/03 13:20:58;;;;;;;6.40;4.70;;;8.20;99.90;;;;;;5018832;28;20488;-76
2023/01/03 13:23:34;;;;;;;5.20;4.70;;;8.10;99.90;;;;;;5016757;28;20497;-74
2023/01/03 13:26:25;;;;;;;5.60;4.20;;;8.10;99.90;;;;;;5024884;28;20518;-74
2023/01/03 13:29:14;;;;;;;5.80;3.67;;;8.10;99.90;;;;;;5013912;28;20610;-74
2023/01/03 13:31:42;;;;;;;5.60;4.80;;;8.10;99.90;;;;;;5032521;28;20884;-74
2023/01/03 13:34:33;;;;;;;5.57;4.47;;;8.00;99.90;;;;;;5015820;28;20694;-77
2023/01/03 13:37:16;;;;;;;5.60;4.93;;;7.90;99.90;;;;;;5020182;28;20261;-76
2023/01/03 13:40:29;;;;;;;6.43;5.87;;;7.90;99.90;;;;;;5015487;28;20511;-76
2023/01/03 13:43:11;;;;;;;4.13;3.83;;;7.90;99.90;;;;;;5021148;28;20579;-76
2023/01/03 13:45:54;;;;;;;3.83;3.53;;;7.80;99.90;;;;;;5022789;28;21108;-76
2023/01/03 13:48:40;;;;;;;6.00;5.00;;;7.80;99.90;;;;;;5025679;28;20445;-76
2023/01/03 13:51:49;;;;;;;6.20;5.47;;;7.80;99.90;;;;;;5024321;28;20620;-76
2023/01/03 13:54:36;;;;;;;9.32;7.78;;;7.70;99.90;;;;;;5021024;28;20477;-76
2023/01/03 13:57:28;;;;;;;8.37;7.57;;;7.70;99.90;;;;;;5028398;28;20504;-76
2023/01/03 13:59:58;;;;;;;5.70;4.93;;;7.70;99.90;;;;;;5034763;28;20442;-76
2023/01/03 14:03:11;;;;;;;5.38;4.88;;;7.60;99.90;;;;;;5024552;28;20572;-76
2023/01/03 14:06:08;;;;;;;8.67;6.20;;;7.60;99.90;;;;;;5024956;28;20257;-76
2023/01/03 14:09:08;;;;;;;5.23;4.83;;;7.60;99.90;;;;;;5025314;28;20991;-76
2023/01/03 14:11:54;;;;;;;5.10;4.80;;;7.50;99.90;;;;;;5023471;28;20774;-76
2023/01/03 14:14:24;;;;;;;8.20;6.17;;;7.60;99.90;;;;;;5024924;28;20604;-76
2023/01/03 14:16:53;;;;;;;6.30;4.67;;;7.50;99.90;;;;;;5025398;28;20470;-76
2023/01/03 14:19:23;;;;;;;5.37;4.97;;;7.50;99.90;;;;;;5021400;28;20664;-76
2023/01/03 14:21:56;;;;;;;5.97;5.27;;;7.50;99.90;;;;;;5027838;28;20460;-76
2023/01/03 14:24:26;;;;;;;7.70;4.80;;;7.40;99.90;;;;;;5025873;28;20514;-75
2023/01/03 14:26:54;;;;;;;5.13;3.77;;;7.50;99.90;;;;;;5026528;28;20922;-75
2023/01/03 14:29:23;;;;;;;4.70;4.30;;;7.50;99.90;;;;;;5018867;28;20485;-75